Time;durP1;ratioP1;P1;durP2;ratioP2;P2;SDS_P1;SDS_P2;PMS_P1;PMS_P2;Temp;Humidity;BMP_temperature;BMP_pressure;BME280_temperature;BME280_humidity;BME280_pressure;Samples;Min_cycle;Max_cycle;Signal;HPM_P1;HPM_P2
2022/08/02 00:02:23;;;;;;;4.95;0.50;;;20.70;70.40;;;;;;5033398;28;20436;-76
2022/08/02 00:04:49;;;;;;;2.35;0.30;;;20.70;70.50;;;;;;5033607;28;20021;-76
2022/08/02 00:07:16;;;;;;;3.70;0.50;;;20.70;70.70;;;;;;5033415;28;20381;-76
2022/08/02 00:09:42;;;;;;;3.70;0.38;;;20.70;70.70;;;;;;5033494;28;20087;-76
2022/08/02 00:12:08;;;;;;;2.95;0.40;;;20.60;70.70;;;;;;5033204;28;20068;-76
2022/08/02 00:14:34;;;;;;;3.55;0.40;;;20.70;70.80;;;;;;5033154;28;20076;-75
2022/08/02 00:16:59;;;;;;;2.47;0.50;;;20.70;70.90;;;;;;5033387;28;20048;-75
2022/08/02 00:19:25;;;;;;;3.75;0.40;;;20.70;71.50;;;;;;5033464;28;20026;-75
2022/08/02 00:21:51;;;;;;;3.50;0.50;;;20.70;70.90;;;;;;5033171;28;20026;-75
2022/08/02 00:24:16;;;;;;;5.68;0.60;;;20.70;71.10;;;;;;5033058;28;20029;-75
2022/08/02 00:26:42;;;;;;;2.47;0.40;;;20.70;71.20;;;;;;5033471;28;20026;-76
2022/08/02 00:29:07;;;;;;;2.83;0.40;;;20.70;71.30;;;;;;5032995;28;20032;-76
2022/08/02 00:31:33;;;;;;;2.97;0.43;;;20.60;71.50;;;;;;5033139;28;20473;-75
2022/08/02 00:33:59;;;;;;;2.97;0.40;;;20.60;71.60;;;;;;5033103;28;20029;-75
2022/08/02 00:36:24;;;;;;;4.32;0.43;;;20.60;71.70;;;;;;5033190;28;20040;-76
2022/08/02 00:38:50;;;;;;;3.13;0.50;;;20.60;71.80;;;;;;5033351;28;20021;-75
2022/08/02 00:41:18;;;;;;;2.25;0.40;;;20.60;72.00;;;;;;5033065;28;20033;-76
2022/08/02 00:43:45;;;;;;;4.05;0.50;;;20.60;72.10;;;;;;5033016;28;20026;-76
2022/08/02 00:46:11;;;;;;;4.65;0.40;;;20.60;72.00;;;;;;5032976;28;20108;-76
2022/08/02 00:48:37;;;;;;;2.92;0.45;;;20.60;72.90;;;;;;5032832;28;20411;-75
2022/08/02 00:51:02;;;;;;;4.35;1.13;;;20.60;72.80;;;;;;5033089;28;20033;-76
2022/08/02 00:53:28;;;;;;;2.58;0.40;;;20.60;73.20;;;;;;5036601;28;20029;-76
2022/08/02 00:55:54;;;;;;;2.63;0.40;;;20.50;73.40;;;;;;5036941;28;20041;-75
2022/08/02 00:58:19;;;;;;;2.75;0.47;;;20.50;73.50;;;;;;5036551;28;20025;-75
2022/08/02 01:00:45;;;;;;;2.83;0.40;;;20.50;73.40;;;;;;5036612;28;20104;-75
2022/08/02 01:03:13;;;;;;;1.90;0.47;;;20.50;73.40;;;;;;5036911;28;20108;-75
2022/08/02 01:05:40;;;;;;;3.38;0.40;;;20.50;73.20;;;;;;5036614;28;20021;-75
2022/08/02 01:08:05;;;;;;;2.88;0.50;;;20.40;73.20;;;;;;5036591;28;20129;-75
2022/08/02 01:10:31;;;;;;;2.80;0.32;;;20.40;73.50;;;;;;5036833;28;20504;-75
2022/08/02 01:12:57;;;;;;;3.88;0.50;;;20.40;73.90;;;;;;5036747;28;20022;-76
2022/08/02 01:15:23;;;;;;;3.45;0.63;;;20.40;73.90;;;;;;5036543;28;20100;-75
2022/08/02 01:18:03;;;;;;;2.85;0.47;;;20.40;74.10;;;;;;5036650;28;20033;-75
2022/08/02 01:21:06;;;;;;;4.15;0.80;;;20.30;74.20;;;;;;5036617;28;20101;-75
2022/08/02 01:23:32;;;;;;;;;;;20.30;74.20;;;;;;5036532;28;20096;-75
2022/08/02 01:26:35;;;;;;;1.60;0.40;;;20.20;74.30;;;;;;5036254;28;19945;-75
2022/08/02 01:29:12;;;;;;;4.57;0.95;;;20.20;74.70;;;;;;5036306;28;20382;-75
2022/08/02 01:32:01;;;;;;;3.38;0.40;;;20.20;74.70;;;;;;5036094;28;20488;-75
2022/08/02 01:34:55;;;;;;;2.22;0.50;;;20.10;74.90;;;;;;5035621;28;20076;-76
2022/08/02 01:37:27;;;;;;;2.70;0.55;;;20.20;75.60;;;;;;5036392;28;20026;-75
2022/08/02 01:40:03;;;;;;;3.13;0.45;;;20.10;75.60;;;;;;5035876;28;20022;-75
2022/08/02 01:42:31;;;;;;;3.95;0.60;;;20.10;75.70;;;;;;5035953;28;20550;-75
2022/08/02 01:45:00;;;;;;;1.95;0.40;;;20.10;75.80;;;;;;5036140;28;20026;-75
2022/08/02 01:47:30;;;;;;;5.90;0.70;;;20.10;76.00;;;;;;5036362;28;20087;-75
2022/08/02 01:49:58;;;;;;;2.33;0.60;;;20.10;76.80;;;;;;5036054;28;20037;-75
2022/08/02 01:52:28;;;;;;;3.17;0.40;;;20.00;76.20;;;;;;5035816;28;20025;-75
2022/08/02 01:55:01;;;;;;;4.88;0.80;;;20.00;76.10;;;;;;5035698;28;20039;-75
2022/08/02 01:57:44;;;;;;;3.55;0.80;;;20.00;76.40;;;;;;5035863;28;20025;-75
2022/08/02 02:00:10;;;;;;;3.33;0.50;;;20.00;76.60;;;;;;5035830;28;20025;-76
2022/08/02 02:02:40;;;;;;;3.88;0.57;;;19.90;76.60;;;;;;5035137;28;20427;-75
2022/08/02 02:05:13;;;;;;;5.65;0.60;;;19.90;76.70;;;;;;5034649;28;20022;-75
2022/08/02 02:07:41;;;;;;;1.65;0.40;;;19.90;77.00;;;;;;5035859;28;20029;-75
2022/08/02 02:10:10;;;;;;;6.20;0.60;;;19.80;77.50;;;;;;5035612;28;20177;-75
2022/08/02 02:12:38;;;;;;;3.63;0.57;;;19.80;77.60;;;;;;5035366;28;20481;-75
2022/08/02 02:15:05;;;;;;;3.88;0.70;;;19.80;77.40;;;;;;5035154;28;20053;-75
2022/08/02 02:17:32;;;;;;;6.05;0.65;;;19.80;77.40;;;;;;5035112;28;20091;-75
2022/08/02 02:20:00;;;;;;;3.88;0.60;;;19.80;77.50;;;;;;5035531;28;20048;-75
2022/08/02 02:22:25;;;;;;;6.20;0.82;;;19.80;77.50;;;;;;5035198;28;20378;-76
2022/08/02 02:24:51;;;;;;;6.75;0.80;;;19.70;77.20;;;;;;5035220;28;20045;-75
2022/08/02 02:27:18;;;;;;;7.45;0.70;;;19.60;77.10;;;;;;5035248;28;20473;-75
2022/08/02 02:29:47;;;;;;;1.88;0.50;;;19.50;77.50;;;;;;5035003;28;20035;-75
2022/08/02 02:32:14;;;;;;;4.93;0.82;;;19.50;77.50;;;;;;5034975;28;20108;-75
2022/08/02 02:34:45;;;;;;;4.75;1.00;;;19.40;77.80;;;;;;5034947;28;20034;-75
2022/08/02 02:37:19;;;;;;;4.25;0.50;;;19.40;78.00;;;;;;5035233;28;20033;-75
2022/08/02 02:39:47;;;;;;;3.90;0.50;;;19.30;78.20;;;;;;5034852;28;20087;-75
2022/08/02 02:42:16;;;;;;;4.32;0.60;;;19.30;78.30;;;;;;5035156;28;20029;-75
2022/08/02 02:44:43;;;;;;;3.88;0.40;;;19.30;78.50;;;;;;5034742;28;20381;-75
2022/08/02 02:47:10;;;;;;;4.13;0.70;;;19.40;79.30;;;;;;5034824;28;20033;-75
2022/08/02 02:49:36;;;;;;;4.18;0.65;;;19.40;78.80;;;;;;5034859;28;20034;-75
2022/08/02 02:52:04;;;;;;;7.60;1.25;;;19.30;78.60;;;;;;5034838;28;20022;-76
2022/08/02 02:54:32;;;;;;;5.90;1.10;;;19.30;78.80;;;;;;5034373;28;20458;-76
2022/08/02 02:56:59;;;;;;;5.10;0.95;;;19.30;78.50;;;;;;5034635;28;20036;-76
2022/08/02 02:59:26;;;;;;;5.63;0.95;;;19.30;78.40;;;;;;5034781;28;20025;-76
2022/08/02 03:01:53;;;;;;;3.67;1.02;;;19.30;78.00;;;;;;5034832;28;20381;-76
2022/08/02 03:04:20;;;;;;;4.13;1.00;;;19.30;78.10;;;;;;5034141;28;20104;-76
2022/08/02 03:06:46;;;;;;;4.65;1.05;;;19.30;78.70;;;;;;5034390;28;20495;-76
2022/08/02 03:09:12;;;;;;;5.40;0.80;;;19.30;77.90;;;;;;5034199;28;20041;-76
2022/08/02 03:11:39;;;;;;;5.72;0.73;;;19.30;78.00;;;;;;5034219;28;20109;-76
2022/08/02 03:14:09;;;;;;;3.20;0.50;;;19.30;78.20;;;;;;5034147;28;20049;-76
2022/08/02 03:16:41;;;;;;;3.80;0.77;;;19.40;78.30;;;;;;5034264;28;20029;-76
2022/08/02 03:19:07;;;;;;;2.90;0.70;;;19.40;79.20;;;;;;5034193;28;20476;-76
2022/08/02 03:21:32;;;;;;;5.63;0.82;;;19.40;78.70;;;;;;5033897;28;20036;-76
2022/08/02 03:23:58;;;;;;;4.05;0.60;;;19.40;78.10;;;;;;5034091;28;20095;-76
2022/08/02 03:26:24;;;;;;;4.68;0.70;;;19.40;78.00;;;;;;5034015;28;20082;-76
2022/08/02 03:28:49;;;;;;;3.65;1.52;;;19.40;78.00;;;;;;5034145;28;20033;-76
2022/08/02 03:31:15;;;;;;;4.38;0.68;;;19.50;78.10;;;;;;5034187;28;20068;-76
2022/08/02 03:33:40;;;;;;;4.90;0.80;;;19.50;78.20;;;;;;5034207;28;20022;-76
2022/08/02 03:36:11;;;;;;;2.63;0.70;;;19.40;78.50;;;;;;5033893;28;20389;-76
2022/08/02 03:38:37;;;;;;;4.05;0.77;;;19.50;78.80;;;;;;5033881;28;20031;-76
2022/08/02 03:41:04;;;;;;;5.93;1.10;;;19.50;78.80;;;;;;5034273;28;20030;-76
2022/08/02 03:43:31;;;;;;;2.20;0.80;;;19.50;78.70;;;;;;5033992;28;20032;-76
2022/08/02 03:45:57;;;;;;;2.17;0.50;;;19.50;78.60;;;;;;5033654;28;20488;-76
2022/08/02 03:48:23;;;;;;;6.65;0.85;;;19.50;78.90;;;;;;5033598;28;20493;-76
2022/08/02 03:50:50;;;;;;;6.95;0.70;;;19.50;78.30;;;;;;5033861;28;20358;-76
2022/08/02 03:53:16;;;;;;;5.35;0.63;;;19.50;78.60;;;;;;5033382;28;20017;-76
2022/08/02 03:55:42;;;;;;;2.45;0.63;;;19.50;78.90;;;;;;5033472;28;20108;-76
2022/08/02 03:58:08;;;;;;;3.85;0.88;;;19.50;79.20;;;;;;5033511;28;20473;-76
2022/08/02 04:00:33;;;;;;;3.45;0.82;;;19.50;79.30;;;;;;5033478;28;20083;-76
2022/08/02 04:02:59;;;;;;;4.25;1.40;;;19.40;79.20;;;;;;5033688;28;20013;-76
2022/08/02 04:05:25;;;;;;;7.75;1.00;;;19.40;79.10;;;;;;5033453;28;20108;-76
2022/08/02 04:07:51;;;;;;;5.93;1.10;;;19.40;78.80;;;;;;5033090;28;20116;-76
2022/08/02 04:10:17;;;;;;;3.25;0.90;;;19.40;78.90;;;;;;5033691;28;20128;-76
2022/08/02 04:12:43;;;;;;;4.03;1.08;;;19.40;79.10;;;;;;5033500;28;20024;-76
2022/08/02 04:15:12;;;;;;;5.35;1.45;;;19.30;79.10;;;;;;5033500;28;20040;-76
2022/08/02 04:17:44;;;;;;;6.82;1.40;;;19.30;79.40;;;;;;5032190;28;20033;-76
2022/08/02 04:20:17;;;;;;;7.05;1.50;;;19.30;79.70;;;;;;5033024;28;20026;-76
2022/08/02 04:22:52;;;;;;;5.00;1.45;;;19.30;79.80;;;;;;5033190;28;20042;-76
2022/08/02 04:25:19;;;;;;;5.60;1.30;;;19.30;79.90;;;;;;5033261;28;20605;-76
2022/08/02 04:27:45;;;;;;;6.40;2.20;;;19.40;79.90;;;;;;5032437;28;20036;-76
2022/08/02 04:30:12;;;;;;;5.60;1.95;;;19.40;79.60;;;;;;5033366;28;20392;-76
2022/08/02 04:32:38;;;;;;;5.40;1.63;;;19.30;79.70;;;;;;5033105;28;20026;-76
2022/08/02 04:35:05;;;;;;;5.50;1.63;;;19.30;80.00;;;;;;5033380;28;20055;-76
2022/08/02 04:37:31;;;;;;;5.18;1.50;;;19.30;79.90;;;;;;5033352;28;20029;-76
2022/08/02 04:39:57;;;;;;;8.07;2.00;;;19.30;80.00;;;;;;5033275;28;20024;-76
2022/08/02 04:42:24;;;;;;;5.13;1.55;;;19.20;80.00;;;;;;5032734;28;20108;-76
2022/08/02 04:44:51;;;;;;;2.97;0.93;;;19.20;80.10;;;;;;5033081;28;20032;-76
2022/08/02 04:47:17;;;;;;;4.28;1.45;;;19.20;80.60;;;;;;5033032;28;20095;-76
2022/08/02 04:49:42;;;;;;;6.75;1.40;;;19.20;80.90;;;;;;5032516;28;20034;-76
2022/08/02 04:52:08;;;;;;;7.70;1.80;;;19.30;80.90;;;;;;5032544;28;20065;-76
2022/08/02 04:54:34;;;;;;;7.45;1.80;;;19.30;80.80;;;;;;5032831;28;20124;-76
2022/08/02 04:56:59;;;;;;;6.30;1.40;;;19.20;80.90;;;;;;5032729;28;20033;-76
2022/08/02 04:59:28;;;;;;;4.65;1.33;;;19.20;81.00;;;;;;5032695;28;20038;-76
2022/08/02 05:01:53;;;;;;;7.47;1.80;;;19.20;81.20;;;;;;5032516;28;20480;-76
2022/08/02 05:04:19;;;;;;;5.65;1.48;;;19.20;81.20;;;;;;5032259;28;20025;-76
2022/08/02 05:06:44;;;;;;;3.83;1.75;;;19.20;81.20;;;;;;5032921;28;20053;-76
2022/08/02 05:09:10;;;;;;;4.70;1.50;;;19.10;81.40;;;;;;5032786;28;20380;-76
2022/08/02 05:11:36;;;;;;;6.15;1.67;;;19.10;81.80;;;;;;5032942;28;20163;-76
2022/08/02 05:14:01;;;;;;;4.57;1.48;;;19.10;81.70;;;;;;5032499;28;20018;-76
2022/08/02 05:16:27;;;;;;;6.85;1.90;;;19.10;81.80;;;;;;5032573;28;20029;-76
2022/08/02 05:18:52;;;;;;;5.32;1.73;;;19.10;81.70;;;;;;5032550;28;20477;-75
2022/08/02 05:21:18;;;;;;;5.45;1.70;;;19.10;81.70;;;;;;5032948;28;20056;-75
2022/08/02 05:23:44;;;;;;;7.22;1.50;;;19.10;82.40;;;;;;5032474;28;20412;-75
2022/08/02 05:26:09;;;;;;;7.85;1.73;;;19.10;81.70;;;;;;5032328;28;20354;-75
2022/08/02 05:28:35;;;;;;;5.35;1.98;;;19.20;81.80;;;;;;5032540;28;20083;-75
2022/08/02 05:31:00;;;;;;;6.68;1.83;;;19.20;81.70;;;;;;5032560;28;20449;-75
2022/08/02 05:33:26;;;;;;;5.10;2.03;;;19.20;81.70;;;;;;5032763;28;20022;-75
2022/08/02 05:35:51;;;;;;;6.35;2.30;;;19.20;81.90;;;;;;5032400;28;20057;-75
2022/08/02 05:38:17;;;;;;;7.53;2.30;;;19.20;81.90;;;;;;5034358;28;20064;-75
2022/08/02 05:40:43;;;;;;;5.45;2.10;;;19.10;81.90;;;;;;5035876;28;20032;-75
2022/08/02 05:43:12;;;;;;;9.10;2.33;;;19.10;82.10;;;;;;5035943;28;20384;-75
2022/08/02 05:45:38;;;;;;;5.35;2.00;;;19.10;82.10;;;;;;5035778;28;20396;-75
2022/08/02 05:48:04;;;;;;;4.70;2.30;;;19.10;82.20;;;;;;5035729;28;20093;-75
2022/08/02 05:50:31;;;;;;;9.40;2.55;;;19.10;82.20;;;;;;5035931;28;20125;-75
2022/08/02 05:53:12;;;;;;;10.02;2.47;;;19.20;82.20;;;;;;5035668;28;20163;-75
2022/08/02 05:56:21;;;;;;;9.18;2.70;;;19.10;82.50;;;;;;5036062;28;20029;-75
2022/08/02 05:58:57;;;;;;;8.82;2.55;;;19.20;82.60;;;;;;5035181;28;20493;-75
2022/08/02 06:01:31;;;;;;;9.48;2.58;;;19.20;82.40;;;;;;5035568;28;20086;-75
2022/08/02 06:03:59;;;;;;;7.25;2.20;;;19.00;82.30;;;;;;5035690;28;20389;-75
2022/08/02 06:06:25;;;;;;;7.78;2.33;;;19.00;83.00;;;;;;5035356;28;20028;-75
2022/08/02 06:08:58;;;;;;;9.57;2.75;;;19.00;83.40;;;;;;5035130;28;20044;-75
2022/08/02 06:11:33;;;;;;;6.38;2.42;;;19.10;83.30;;;;;;5035458;28;20420;-75
2022/08/02 06:13:59;;;;;;;5.88;2.08;;;19.20;83.10;;;;;;5035246;28;20025;-75
2022/08/02 06:16:27;;;;;;;9.68;2.53;;;19.30;82.90;;;;;;5034837;28;20026;-75
2022/08/02 06:18:53;;;;;;;10.45;2.83;;;19.30;82.90;;;;;;5035388;28;20096;-75
2022/08/02 06:21:21;;;;;;;8.35;2.35;;;19.40;82.80;;;;;;5034841;28;20495;-75
2022/08/02 06:23:47;;;;;;;11.35;2.90;;;19.40;82.90;;;;;;5034829;28;20054;-77
2022/08/02 06:26:15;;;;;;;9.15;2.30;;;19.50;83.00;;;;;;5035166;28;20032;-76
2022/08/02 06:28:42;;;;;;;14.07;2.50;;;19.60;83.40;;;;;;5035007;28;20114;-76
2022/08/02 06:31:08;;;;;;;10.43;2.72;;;19.80;84.10;;;;;;5035088;28;20033;-76
2022/08/02 06:33:34;;;;;;;8.23;2.63;;;19.80;83.60;;;;;;5034798;28;20029;-76
2022/08/02 06:36:21;;;;;;;7.43;2.97;;;19.80;83.90;;;;;;5034869;28;20026;-76
2022/08/02 06:39:18;;;;;;;10.82;2.60;;;19.90;84.30;;;;;;5035018;28;20033;-77
2022/08/02 06:41:47;;;;;;;8.70;3.08;;;20.00;84.00;;;;;;5034490;28;20090;-76
2022/08/02 06:44:12;;;;;;;10.90;2.53;;;20.00;84.00;;;;;;5034404;28;20461;-76
2022/08/02 06:46:38;;;;;;;9.10;2.65;;;20.10;84.00;;;;;;5034575;28;20113;-76
2022/08/02 06:49:04;;;;;;;9.70;2.28;;;20.10;84.20;;;;;;5034440;28;20029;-76
2022/08/02 06:51:30;;;;;;;8.73;2.65;;;20.10;85.10;;;;;;5034552;28;20030;-76
2022/08/02 06:53:55;;;;;;;6.80;2.40;;;20.10;85.20;;;;;;5034776;28;20483;-76
2022/08/02 06:56:21;;;;;;;8.40;3.13;;;20.20;85.30;;;;;;5034907;28;20025;-77
2022/08/02 06:58:46;;;;;;;6.22;2.03;;;20.30;85.00;;;;;;5034491;28;20032;-75
2022/08/02 07:01:12;;;;;;;8.38;2.50;;;20.40;84.80;;;;;;5034074;28;20033;-77
2022/08/02 07:03:39;;;;;;;9.35;2.42;;;20.40;84.80;;;;;;5034055;28;20025;-74
2022/08/02 07:06:08;;;;;;;8.52;2.38;;;20.50;85.80;;;;;;5034651;28;20029;-75
2022/08/02 07:08:37;;;;;;;7.10;2.30;;;20.60;86.80;;;;;;5034140;28;20026;-75
2022/08/02 07:11:03;;;;;;;8.20;2.13;;;20.70;85.30;;;;;;5034329;28;20087;-75
2022/08/02 07:13:29;;;;;;;6.00;2.10;;;20.90;85.50;;;;;;5033973;28;20049;-75
2022/08/02 07:15:55;;;;;;;7.85;2.80;;;21.00;85.90;;;;;;5034501;28;20069;-76
2022/08/02 07:18:23;;;;;;;8.38;2.60;;;21.10;85.60;;;;;;5034340;28;20048;-76
2022/08/02 07:20:48;;;;;;;6.82;2.67;;;21.10;85.00;;;;;;5034132;28;20389;-76
2022/08/02 07:23:14;;;;;;;8.00;2.47;;;21.20;85.50;;;;;;5033686;28;20112;-76
2022/08/02 07:25:40;;;;;;;11.23;2.53;;;21.10;85.00;;;;;;5034416;28;20025;-76
2022/08/02 07:28:08;;;;;;;10.80;2.75;;;21.20;85.40;;;;;;5034005;28;20105;-76
2022/08/02 07:30:35;;;;;;;6.65;2.53;;;21.30;85.80;;;;;;5033851;28;20037;-76
2022/08/02 07:33:00;;;;;;;6.70;2.58;;;21.30;85.50;;;;;;5033877;28;20116;-76
2022/08/02 07:35:26;;;;;;;9.13;2.60;;;21.40;85.90;;;;;;5033865;28;20067;-76
2022/08/02 07:37:52;;;;;;;8.32;2.08;;;21.50;86.30;;;;;;5033913;28;20037;-76
2022/08/02 07:40:20;;;;;;;5.97;2.45;;;21.70;85.90;;;;;;5033822;28;20037;-75
2022/08/02 07:42:47;;;;;;;5.30;1.85;;;21.80;86.40;;;;;;5033871;28;20409;-75
2022/08/02 07:45:13;;;;;;;7.57;2.10;;;22.00;86.00;;;;;;5033877;28;20025;-75
2022/08/02 07:47:41;;;;;;;5.38;2.20;;;22.10;85.40;;;;;;5033923;28;20029;-75
2022/08/02 07:50:07;;;;;;;4.85;1.77;;;22.20;85.90;;;;;;5033600;28;20547;-76
2022/08/02 07:52:33;;;;;;;5.18;2.08;;;22.30;86.00;;;;;;5033853;28;20029;-76
2022/08/02 07:54:59;;;;;;;9.00;2.55;;;22.40;85.40;;;;;;5033511;28;20418;-76
2022/08/02 07:57:24;;;;;;;4.20;1.83;;;22.60;84.90;;;;;;5033567;28;20029;-76
2022/08/02 07:59:50;;;;;;;5.43;2.05;;;22.60;84.80;;;;;;5033433;28;20108;-76
2022/08/02 08:02:16;;;;;;;6.90;3.25;;;22.70;84.80;;;;;;5032618;28;20412;-75
2022/08/02 08:04:42;;;;;;;7.05;2.85;;;22.80;84.60;;;;;;5033635;28;20084;-76
2022/08/02 08:07:10;;;;;;;5.50;2.83;;;22.80;84.20;;;;;;5033391;28;20029;-75
2022/08/02 08:09:40;;;;;;;7.88;3.20;;;22.90;84.20;;;;;;5033237;28;20468;-75
2022/08/02 08:12:07;;;;;;;5.60;3.17;;;23.00;84.50;;;;;;5033386;28;20025;-76
2022/08/02 08:14:33;;;;;;;8.02;3.05;;;23.00;84.50;;;;;;5033503;28;20022;-76
2022/08/02 08:16:59;;;;;;;4.25;2.70;;;23.10;84.40;;;;;;5033223;28;20013;-76
2022/08/02 08:19:25;;;;;;;8.95;4.03;;;23.20;84.20;;;;;;5033386;28;20044;-76
2022/08/02 08:21:50;;;;;;;7.50;4.20;;;23.30;83.80;;;;;;5033067;28;20041;-76
2022/08/02 08:24:16;;;;;;;7.47;4.68;;;23.40;82.90;;;;;;5033023;28;20088;-76
2022/08/02 08:26:42;;;;;;;10.05;4.93;;;23.40;82.40;;;;;;5033373;28;20112;-76
2022/08/02 08:29:07;;;;;;;7.60;5.05;;;23.40;82.20;;;;;;5032829;28;20152;-76
2022/08/02 08:31:33;;;;;;;6.57;4.57;;;23.40;81.30;;;;;;5033184;28;20026;-76
2022/08/02 08:33:59;;;;;;;8.90;4.47;;;23.40;82.00;;;;;;5033435;28;20022;-76
2022/08/02 08:36:25;;;;;;;7.95;4.20;;;23.50;81.80;;;;;;5033112;28;20021;-76
2022/08/02 08:38:51;;;;;;;7.03;4.78;;;23.60;82.70;;;;;;5032974;28;20034;-76
2022/08/02 08:41:18;;;;;;;9.90;4.82;;;23.60;80.90;;;;;;5033389;28;20373;-76
2022/08/02 08:43:45;;;;;;;11.63;5.40;;;23.70;81.10;;;;;;5032705;28;20100;-76
2022/08/02 08:46:21;;;;;;;8.38;4.57;;;23.80;81.00;;;;;;5033254;28;20065;-76
2022/08/02 08:48:48;;;;;;;5.85;4.68;;;23.80;80.80;;;;;;5032979;28;20030;-76
2022/08/02 08:51:18;;;;;;;7.40;4.30;;;23.80;80.80;;;;;;5032774;28;20519;-75
2022/08/02 08:53:47;;;;;;;6.95;4.07;;;23.70;80.00;;;;;;5032633;28;20025;-75
2022/08/02 08:56:15;;;;;;;8.35;4.43;;;23.80;79.60;;;;;;5032611;28;20037;-75
2022/08/02 08:58:41;;;;;;;5.88;4.30;;;23.80;79.50;;;;;;5033013;28;20122;-75
2022/08/02 09:01:08;;;;;;;6.88;5.47;;;23.90;80.00;;;;;;5033007;28;20026;-75
2022/08/02 09:03:34;;;;;;;8.15;4.28;;;23.90;79.20;;;;;;5032979;28;20119;-75
2022/08/02 09:06:01;;;;;;;6.05;3.65;;;24.00;79.60;;;;;;5032964;28;20022;-75
2022/08/02 09:08:27;;;;;;;5.57;2.90;;;24.10;78.60;;;;;;5032721;28;20079;-75
2022/08/02 09:10:53;;;;;;;6.57;3.10;;;24.20;78.90;;;;;;5032951;28;20428;-75
2022/08/02 09:13:23;;;;;;;7.22;3.80;;;24.30;78.90;;;;;;5034502;28;20540;-75
2022/08/02 09:16:03;;;;;;;6.00;3.15;;;24.40;77.30;;;;;;5036262;28;20404;-75
2022/08/02 09:18:30;;;;;;;6.65;2.85;;;24.40;77.30;;;;;;5036331;28;20025;-75
2022/08/02 09:20:58;;;;;;;4.68;3.30;;;24.50;77.50;;;;;;5036401;28;20051;-75
2022/08/02 09:23:25;;;;;;;5.40;2.35;;;24.60;76.50;;;;;;5036155;28;20057;-75
2022/08/02 09:26:20;;;;;;;3.50;2.03;;;24.70;75.60;;;;;;5036281;28;20468;-75
2022/08/02 09:28:51;;;;;;;4.45;1.60;;;24.80;75.60;;;;;;5034644;28;20121;-75
2022/08/02 09:31:19;;;;;;;1.85;1.20;;;24.80;75.10;;;;;;5036420;28;20032;-75
2022/08/02 09:33:53;;;;;;;2.88;0.90;;;24.90;72.90;;;;;;5036088;28;20029;-75
2022/08/02 09:36:19;;;;;;;3.85;0.88;;;25.00;72.80;;;;;;5036078;28;20455;-75
2022/08/02 09:38:53;;;;;;;3.60;0.93;;;25.00;71.50;;;;;;5035960;28;20025;-75
2022/08/02 09:41:22;;;;;;;3.25;0.70;;;25.10;71.10;;;;;;5035676;28;20041;-75
2022/08/02 09:43:48;;;;;;;2.58;0.75;;;25.10;71.70;;;;;;5036042;28;20472;-76
2022/08/02 09:46:18;;;;;;;2.95;1.00;;;25.20;72.90;;;;;;5036016;28;20052;-76
2022/08/02 09:48:47;;;;;;;4.78;0.98;;;25.30;72.50;;;;;;5035652;28;20021;-76
2022/08/02 09:51:17;;;;;;;4.82;0.80;;;25.30;72.20;;;;;;5035860;28;20029;-76
2022/08/02 09:53:42;;;;;;;1.40;0.80;;;25.40;71.90;;;;;;5035531;28;20028;-76
2022/08/02 09:56:08;;;;;;;6.10;1.17;;;25.40;71.90;;;;;;5035733;28;20029;-76
2022/08/02 09:58:38;;;;;;;3.20;1.00;;;25.50;71.80;;;;;;5035551;28;20024;-76
2022/08/02 10:01:04;;;;;;;2.25;0.93;;;25.60;71.90;;;;;;5035450;28;20026;-76
2022/08/02 10:03:30;;;;;;;4.72;0.90;;;25.60;72.20;;;;;;5035838;28;20053;-76
2022/08/02 10:06:00;;;;;;;5.10;0.82;;;25.70;71.80;;;;;;5035882;28;20049;-76
2022/08/02 10:08:28;;;;;;;1.63;0.70;;;25.70;72.40;;;;;;5035483;28;20025;-76
2022/08/02 10:11:00;;;;;;;2.53;0.90;;;25.80;71.50;;;;;;5035487;28;20026;-76
2022/08/02 10:13:33;;;;;;;1.95;1.13;;;25.90;71.80;;;;;;5035761;28;20035;-76
2022/08/02 10:16:01;;;;;;;1.67;0.80;;;25.90;71.20;;;;;;5035485;28;20080;-76
2022/08/02 10:18:27;;;;;;;4.90;0.80;;;26.00;71.10;;;;;;5035012;28;20104;-76
2022/08/02 10:20:55;;;;;;;1.80;0.60;;;26.00;70.60;;;;;;5035492;28;20029;-76
2022/08/02 10:23:26;;;;;;;2.30;0.70;;;26.10;70.00;;;;;;5035113;28;20409;-76
2022/08/02 10:25:53;;;;;;;2.50;1.17;;;26.10;69.30;;;;;;5034080;28;20488;-76
2022/08/02 10:28:25;;;;;;;2.40;1.05;;;26.10;69.50;;;;;;5034860;28;20095;-76
2022/08/02 10:30:53;;;;;;;1.55;0.60;;;26.10;69.30;;;;;;5034962;28;20037;-76
2022/08/02 10:33:19;;;;;;;2.70;1.52;;;26.10;69.30;;;;;;5035196;28;20052;-76
2022/08/02 10:35:49;;;;;;;1.08;0.70;;;26.00;69.10;;;;;;5034984;28;20036;-76
2022/08/02 10:38:16;;;;;;;2.28;0.80;;;26.00;69.40;;;;;;5035119;28;20033;-75
2022/08/02 10:40:50;;;;;;;1.45;0.68;;;26.00;69.80;;;;;;5034942;28;20025;-75
2022/08/02 10:43:39;;;;;;;2.22;0.70;;;26.00;69.00;;;;;;5035127;28;20033;-76
2022/08/02 10:46:36;;;;;;;1.70;0.60;;;25.90;68.80;;;;;;5027068;28;20066;-76
2022/08/02 10:49:12;;;;;;;2.08;0.52;;;26.00;69.00;;;;;;5034896;28;20037;-76
2022/08/02 10:52:04;;;;;;;2.60;0.55;;;26.00;69.60;;;;;;5034569;28;20025;-76
2022/08/02 10:54:35;;;;;;;1.33;0.37;;;26.00;67.20;;;;;;5034422;28;20495;-76
2022/08/02 10:57:01;;;;;;;1.67;0.50;;;26.10;67.90;;;;;;5034738;28;20351;-76
2022/08/02 10:59:34;;;;;;;2.70;0.30;;;26.20;68.20;;;;;;5034712;28;20018;-76
2022/08/02 11:02:01;;;;;;;1.10;0.43;;;26.40;66.10;;;;;;5034692;28;20022;-76
2022/08/02 11:04:35;;;;;;;2.17;0.50;;;26.50;65.20;;;;;;5034305;28;20041;-77
2022/08/02 11:07:18;;;;;;;3.97;0.50;;;26.50;64.60;;;;;;5034503;28;20381;-77
2022/08/02 11:09:50;;;;;;;1.35;0.43;;;26.70;64.50;;;;;;5034559;28;20385;-77
2022/08/02 11:12:19;;;;;;;;;;;26.70;64.40;;;;;;5034818;28;20030;-77
2022/08/02 11:15:02;;;;;;;1.23;0.40;;;26.90;64.20;;;;;;5034565;28;19916;-77
2022/08/02 11:17:52;;;;;;;1.00;0.40;;;27.00;63.30;;;;;;5033981;28;20026;-77
2022/08/02 11:20:19;;;;;;;2.75;0.40;;;27.10;62.60;;;;;;5034430;28;20074;-77
2022/08/02 11:22:46;;;;;;;1.13;0.40;;;27.10;62.30;;;;;;5033964;28;20497;-77
2022/08/02 11:25:21;;;;;;;2.72;0.60;;;27.00;61.70;;;;;;5033543;28;20029;-77
2022/08/02 11:27:57;;;;;;;2.67;0.47;;;27.00;62.10;;;;;;5034140;28;20029;-77
2022/08/02 11:30:23;;;;;;;4.43;0.50;;;27.00;61.80;;;;;;5033644;28;20528;-77
2022/08/02 11:32:50;;;;;;;1.13;0.40;;;26.90;61.70;;;;;;5033474;28;20445;-77
2022/08/02 11:35:15;;;;;;;3.60;0.45;;;26.90;61.90;;;;;;5032820;28;20033;-77
2022/08/02 11:37:43;;;;;;;1.10;0.50;;;26.90;62.40;;;;;;5034009;28;20381;-77
2022/08/02 11:40:16;;;;;;;1.40;0.50;;;27.00;61.90;;;;;;5033938;28;20021;-76
2022/08/02 11:42:49;;;;;;;0.85;0.40;;;27.10;61.50;;;;;;5033895;28;20087;-77
2022/08/02 11:45:16;;;;;;;2.15;0.32;;;27.20;61.50;;;;;;5033587;28;20036;-76
2022/08/02 11:47:53;;;;;;;1.52;0.38;;;27.30;61.10;;;;;;5033611;28;20034;-76
2022/08/02 11:50:23;;;;;;;0.75;0.30;;;27.60;61.20;;;;;;5033689;28;20042;-76
2022/08/02 11:52:52;;;;;;;1.42;0.50;;;27.60;59.40;;;;;;5033773;28;20018;-76
2022/08/02 11:55:25;;;;;;;1.70;0.45;;;27.60;58.70;;;;;;5033803;28;20071;-76
2022/08/02 11:58:00;;;;;;;1.98;0.30;;;27.60;58.60;;;;;;5033755;28;20460;-76
2022/08/02 12:00:26;;;;;;;1.05;0.30;;;27.50;58.50;;;;;;5033494;28;20030;-76
2022/08/02 12:02:52;;;;;;;1.45;0.35;;;27.50;59.10;;;;;;5033532;28;20032;-76
2022/08/02 12:05:20;;;;;;;3.28;0.40;;;27.40;59.60;;;;;;5033260;28;20060;-76
2022/08/02 12:07:46;;;;;;;0.63;0.30;;;27.40;58.90;;;;;;5033623;28;20028;-75
2022/08/02 12:10:17;;;;;;;1.23;0.20;;;27.40;58.30;;;;;;5033388;28;20033;-76
2022/08/02 12:13:01;;;;;;;1.27;0.50;;;27.50;58.80;;;;;;5033278;28;20025;-76
2022/08/02 12:15:35;;;;;;;3.15;0.60;;;27.70;58.70;;;;;;5032962;28;20496;-76
2022/08/02 12:20:46;;;;;;;2.67;0.60;;;28.00;57.10;;;;;;5033174;28;20037;-76
2022/08/02 12:23:12;;;;;;;2.72;0.40;;;28.20;56.90;;;;;;5033052;28;20045;-76
2022/08/02 12:25:38;;;;;;;0.85;0.30;;;28.30;56.40;;;;;;5033262;28;20026;-76
2022/08/02 12:28:24;;;;;;;1.25;0.30;;;28.30;55.70;;;;;;5033197;28;20022;-76
2022/08/02 12:30:56;;;;;;;1.40;0.35;;;28.40;55.50;;;;;;5033070;28;20518;-76
2022/08/02 12:33:23;;;;;;;1.23;0.30;;;28.50;55.30;;;;;;5033239;28;20021;-76
2022/08/02 12:35:49;;;;;;;1.95;0.30;;;28.50;54.30;;;;;;5033299;28;20034;-76
2022/08/02 12:38:15;;;;;;;2.35;0.40;;;28.40;54.30;;;;;;5033221;28;20160;-76
2022/08/02 12:40:40;;;;;;;2.58;0.40;;;28.40;54.80;;;;;;5033118;28;20534;-75
2022/08/02 12:43:14;;;;;;;5.20;0.45;;;28.50;54.00;;;;;;5033028;28;20500;-76
2022/08/02 12:45:56;;;;;;;2.65;0.30;;;28.50;54.30;;;;;;5032904;28;20033;-76
2022/08/02 12:48:39;;;;;;;1.90;0.25;;;28.70;55.30;;;;;;5034962;28;20029;-76
2022/08/02 12:51:25;;;;;;;3.30;0.50;;;28.80;54.60;;;;;;5037060;28;20065;-79
2022/08/02 12:53:53;;;;;;;1.83;0.30;;;28.90;52.80;;;;;;5036899;28;20485;-79
2022/08/02 12:56:35;;;;;;;1.83;0.38;;;29.00;53.00;;;;;;5036981;28;20188;-76
2022/08/02 12:59:01;;;;;;;1.67;0.50;;;29.00;52.80;;;;;;5036928;28;20109;-76
2022/08/02 13:01:28;;;;;;;1.05;0.43;;;29.00;52.40;;;;;;5036960;28;20048;-76